Time;durP1;ratioP1;P1;durP2;ratioP2;P2;SDS_P1;SDS_P2;PMS_P1;PMS_P2;Temp;Humidity;BMP_temperature;BMP_pressure;BME280_temperature;BME280_humidity;BME280_pressure;Samples;Min_cycle;Max_cycle;Signal;HPM_P1;HPM_P2
2023/10/26 00:01:11;;;;;;;0.22;0.22;;;9.30;99.90;;;;;;4983573;28;20050;-66
2023/10/26 00:03:36;;;;;;;0.43;0.43;;;9.30;99.90;;;;;;4986496;28;20031;-65
2023/10/26 00:06:02;;;;;;;3.72;1.85;;;9.30;99.90;;;;;;4991566;28;20100;-66
2023/10/26 00:08:28;;;;;;;0.93;0.45;;;9.30;99.90;;;;;;4980319;28;20092;-66
2023/10/26 00:10:53;;;;;;;0.13;0.13;;;9.20;99.90;;;;;;4985244;28;20043;-65
2023/10/26 00:13:19;;;;;;;0.10;0.10;;;9.20;99.90;;;;;;4982779;28;20061;-65
2023/10/26 00:15:44;;;;;;;0.00;0.00;;;9.20;99.90;;;;;;4990386;28;20070;-66
2023/10/26 00:18:11;;;;;;;0.30;0.30;;;9.10;99.90;;;;;;4989835;28;20398;-65
2023/10/26 00:20:37;;;;;;;0.50;0.50;;;9.00;99.90;;;;;;4986412;28;20042;-65
2023/10/26 00:23:05;;;;;;;0.75;0.75;;;9.10;99.90;;;;;;4983136;28;20042;-65
2023/10/26 00:25:30;;;;;;;0.10;0.10;;;9.10;99.90;;;;;;4990411;28;20096;-66
2023/10/26 00:27:56;;;;;;;0.65;0.55;;;9.20;99.90;;;;;;4988985;28;20498;-65
2023/10/26 00:30:21;;;;;;;0.10;0.10;;;9.20;99.90;;;;;;4979754;28;20055;-65
2023/10/26 00:32:47;;;;;;;0.13;0.13;;;9.30;99.90;;;;;;4986419;28;20082;-66
2023/10/26 00:35:13;;;;;;;0.57;0.57;;;9.40;99.90;;;;;;4989788;28;20054;-65
2023/10/26 00:37:38;;;;;;;0.10;0.10;;;9.40;99.90;;;;;;4989516;28;20478;-66
2023/10/26 00:40:04;;;;;;;0.10;0.10;;;9.40;99.90;;;;;;4986271;28;20445;-65
2023/10/26 00:42:30;;;;;;;0.95;0.55;;;9.50;99.90;;;;;;4988724;28;20050;-65
2023/10/26 00:44:56;;;;;;;0.80;0.80;;;9.60;99.90;;;;;;4982812;28;20039;-65
2023/10/26 00:47:23;;;;;;;0.30;0.30;;;9.60;99.90;;;;;;4982786;28;20041;-65
2023/10/26 00:49:49;;;;;;;0.10;0.10;;;9.60;99.90;;;;;;4989860;28;20432;-65
2023/10/26 00:52:15;;;;;;;0.43;0.43;;;9.60;99.90;;;;;;4983912;28;20125;-65
2023/10/26 00:54:42;;;;;;;0.57;0.57;;;9.60;99.90;;;;;;4985442;28;20082;-65
2023/10/26 00:57:08;;;;;;;1.25;0.90;;;9.60;99.90;;;;;;4985753;28;20046;-65
2023/10/26 00:59:33;;;;;;;0.28;0.28;;;9.70;99.90;;;;;;4982664;28;20062;-65
2023/10/26 01:02:02;;;;;;;0.30;0.30;;;9.70;99.90;;;;;;4982657;28;20508;-65
2023/10/26 01:04:28;;;;;;;0.30;0.30;;;9.80;99.90;;;;;;4988510;28;20053;-65
2023/10/26 01:06:53;;;;;;;0.28;0.28;;;9.70;99.90;;;;;;4982687;28;20054;-65
2023/10/26 01:09:20;;;;;;;0.10;0.10;;;9.80;99.90;;;;;;4984992;28;20046;-66
2023/10/26 01:11:46;;;;;;;0.10;0.10;;;9.80;99.90;;;;;;4988562;28;20062;-65
2023/10/26 01:14:12;;;;;;;0.30;0.30;;;9.80;99.90;;;;;;4977692;28;20065;-65
2023/10/26 01:16:38;;;;;;;0.20;0.20;;;9.80;99.90;;;;;;4983727;28;20052;-66
2023/10/26 01:19:05;;;;;;;0.38;0.38;;;9.90;99.90;;;;;;4990513;28;20038;-66
2023/10/26 01:21:46;;;;;;;0.35;0.35;;;9.90;99.90;;;;;;4981415;28;20088;-65
2023/10/26 01:24:12;;;;;;;0.40;0.40;;;9.90;99.90;;;;;;4984818;28;20084;-65
2023/10/26 01:26:37;;;;;;;0.20;0.20;;;9.90;99.90;;;;;;4983787;28;20502;-65
2023/10/26 01:29:03;;;;;;;0.32;0.32;;;9.90;99.90;;;;;;4988274;28;20043;-65
2023/10/26 01:31:29;;;;;;;2.70;0.63;;;9.90;99.90;;;;;;4988907;28;20402;-65
2023/10/26 01:33:55;;;;;;;0.50;0.50;;;10.00;99.90;;;;;;4987834;28;20050;-65
2023/10/26 01:36:20;;;;;;;0.32;0.32;;;9.90;99.90;;;;;;4984573;28;20133;-65
2023/10/26 01:38:46;;;;;;;0.45;0.45;;;10.00;99.90;;;;;;4989092;28;20046;-65
2023/10/26 01:41:12;;;;;;;0.10;0.10;;;10.00;99.90;;;;;;4989855;28;20046;-66
2023/10/26 01:43:37;;;;;;;0.20;0.20;;;10.00;99.90;;;;;;4982472;28;20066;-65
2023/10/26 01:46:03;;;;;;;1.05;1.05;;;10.00;99.90;;;;;;4984073;28;20780;-65
2023/10/26 01:48:28;;;;;;;0.57;0.57;;;10.00;99.90;;;;;;5004367;28;20109;-65
2023/10/26 01:50:54;;;;;;;0.43;0.43;;;10.00;99.90;;;;;;4992823;28;20169;-65
2023/10/26 01:53:23;;;;;;;0.85;0.77;;;10.10;99.90;;;;;;4982608;28;20046;-65
2023/10/26 01:55:49;;;;;;;0.50;0.50;;;10.10;99.90;;;;;;4993302;28;20053;-66
2023/10/26 01:58:15;;;;;;;0.10;0.10;;;10.10;99.90;;;;;;5000688;28;20139;-65
2023/10/26 02:00:41;;;;;;;0.60;0.60;;;10.10;99.90;;;;;;4983497;28;20134;-65
2023/10/26 02:03:07;;;;;;;0.57;0.57;;;10.10;99.90;;;;;;4994014;28;20061;-65
2023/10/26 02:05:33;;;;;;;1.02;0.95;;;10.10;99.90;;;;;;4985563;28;20046;-66
2023/10/26 02:07:59;;;;;;;0.47;0.47;;;10.10;99.90;;;;;;4992461;28;20039;-65
2023/10/26 02:10:29;;;;;;;0.15;0.15;;;10.10;99.90;;;;;;4993315;28;20050;-65
2023/10/26 02:12:57;;;;;;;0.10;0.10;;;10.20;99.90;;;;;;4992481;28;20402;-66
2023/10/26 02:15:23;;;;;;;5.97;1.40;;;10.20;99.90;;;;;;4987736;28;20146;-65
2023/10/26 02:17:48;;;;;;;0.43;0.43;;;10.20;99.90;;;;;;4987844;28;20162;-65
2023/10/26 02:20:14;;;;;;;0.10;0.10;;;10.20;99.90;;;;;;4992862;28;20042;-65
2023/10/26 02:22:40;;;;;;;3.30;0.98;;;10.20;99.90;;;;;;4987094;28;20138;-65
2023/10/26 02:25:06;;;;;;;0.47;0.47;;;10.20;99.90;;;;;;4990405;28;20109;-65
2023/10/26 02:27:32;;;;;;;0.35;0.35;;;10.30;99.90;;;;;;4989419;28;20053;-65
2023/10/26 02:29:58;;;;;;;0.28;0.28;;;10.30;99.90;;;;;;4985973;28;20038;-66
2023/10/26 02:32:23;;;;;;;2.17;1.38;;;10.20;99.90;;;;;;4982540;28;20148;-66
2023/10/26 02:34:49;;;;;;;0.32;0.32;;;10.20;99.90;;;;;;4992380;28;20053;-65
2023/10/26 02:37:18;;;;;;;0.10;0.10;;;10.20;99.90;;;;;;4982328;28;20513;-65
2023/10/26 02:39:44;;;;;;;1.50;1.45;;;10.20;99.90;;;;;;4986370;28;20934;-65
2023/10/26 02:42:09;;;;;;;0.80;0.65;;;10.10;99.90;;;;;;4987820;28;20158;-65
2023/10/26 02:44:35;;;;;;;0.40;0.40;;;10.10;99.90;;;;;;4988935;28;20398;-65
2023/10/26 02:47:01;;;;;;;0.75;0.75;;;10.10;99.90;;;;;;4987107;28;20389;-65
2023/10/26 02:49:26;;;;;;;0.73;0.73;;;10.10;99.90;;;;;;4983237;28;20096;-65
2023/10/26 02:51:52;;;;;;;0.28;0.28;;;10.10;99.90;;;;;;4986988;28;20035;-65
2023/10/26 02:54:19;;;;;;;1.10;0.77;;;10.10;99.90;;;;;;4989421;28;20045;-65
2023/10/26 02:56:44;;;;;;;0.68;0.68;;;10.10;99.90;;;;;;4991125;28;20077;-66
2023/10/26 02:59:10;;;;;;;1.10;0.65;;;10.10;99.90;;;;;;4991168;28;20132;-65
2023/10/26 03:01:35;;;;;;;0.68;0.68;;;10.00;99.90;;;;;;4977891;28;20057;-65
2023/10/26 03:04:04;;;;;;;0.38;0.38;;;10.00;99.90;;;;;;4987103;28;20524;-65
2023/10/26 03:06:39;;;;;;;0.45;0.45;;;10.00;99.90;;;;;;4984254;28;20122;-66
2023/10/26 03:09:05;;;;;;;1.08;0.95;;;9.90;99.90;;;;;;4989516;28;20109;-65
2023/10/26 03:11:31;;;;;;;1.23;1.13;;;9.90;99.90;;;;;;4990815;28;20541;-65
2023/10/26 03:13:57;;;;;;;0.98;0.95;;;9.90;99.90;;;;;;4988216;28;20174;-65
2023/10/26 03:16:22;;;;;;;2.55;2.30;;;9.80;99.90;;;;;;4987545;28;20153;-65
2023/10/26 03:18:48;;;;;;;0.10;0.10;;;9.80;99.90;;;;;;4990781;28;20382;-65
2023/10/26 03:21:16;;;;;;;4.03;1.13;;;9.80;99.90;;;;;;4988824;28;20045;-65
2023/10/26 03:23:41;;;;;;;0.20;0.20;;;9.70;99.90;;;;;;4979615;28;20398;-65
2023/10/26 03:26:11;;;;;;;0.20;0.20;;;9.80;99.90;;;;;;4986807;28;20054;-65
2023/10/26 03:28:37;;;;;;;0.43;0.43;;;9.70;99.90;;;;;;4980232;28;20049;-66
2023/10/26 03:31:09;;;;;;;0.20;0.20;;;9.70;99.90;;;;;;4986852;28;20054;-65
2023/10/26 03:33:34;;;;;;;0.22;0.22;;;9.60;99.90;;;;;;4984131;28;20507;-65
2023/10/26 03:36:00;;;;;;;0.65;0.65;;;9.60;99.90;;;;;;4986059;28;20058;-65
2023/10/26 03:38:25;;;;;;;0.77;0.77;;;9.60;99.90;;;;;;4986072;28;20057;-66
2023/10/26 03:40:51;;;;;;;0.40;0.40;;;9.50;99.90;;;;;;4991460;28;20057;-65
2023/10/26 03:43:16;;;;;;;1.65;1.13;;;9.50;99.90;;;;;;4990860;28;20383;-66
2023/10/26 03:45:45;;;;;;;1.92;0.95;;;9.50;99.90;;;;;;4980977;28;20540;-65
2023/10/26 03:48:10;;;;;;;1.17;1.08;;;9.50;99.90;;;;;;4977982;28;20059;-65
2023/10/26 03:50:36;;;;;;;0.30;0.30;;;9.40;99.90;;;;;;4985479;28;20047;-65
2023/10/26 03:53:01;;;;;;;0.20;0.20;;;9.40;99.90;;;;;;4991550;28;20046;-65
2023/10/26 03:55:27;;;;;;;0.10;0.10;;;9.30;99.90;;;;;;4984048;28;20052;-65
2023/10/26 03:57:53;;;;;;;0.68;0.68;;;9.30;99.90;;;;;;4987101;28;20521;-65
2023/10/26 04:00:18;;;;;;;0.75;0.65;;;9.20;99.90;;;;;;4988517;28;20081;-65
2023/10/26 04:02:44;;;;;;;0.38;0.38;;;9.20;99.90;;;;;;4989940;28;20101;-65
2023/10/26 04:05:10;;;;;;;0.10;0.10;;;9.20;99.90;;;;;;4981438;28;20096;-65
2023/10/26 04:07:38;;;;;;;0.80;0.80;;;9.20;99.90;;;;;;4984041;28;20133;-65
2023/10/26 04:10:05;;;;;;;1.85;1.75;;;9.20;99.90;;;;;;4985777;28;20049;-65
2023/10/26 04:12:31;;;;;;;0.77;0.77;;;9.20;99.90;;;;;;4988597;28;20042;-65
2023/10/26 04:14:56;;;;;;;1.92;1.40;;;9.20;99.90;;;;;;4983729;28;20108;-66
2023/10/26 04:17:22;;;;;;;2.05;1.15;;;9.20;99.90;;;;;;4983569;28;20045;-65
2023/10/26 04:19:47;;;;;;;0.98;0.75;;;9.20;99.90;;;;;;4983610;28;20045;-65
2023/10/26 04:22:13;;;;;;;0.20;0.20;;;9.20;99.90;;;;;;4982847;28;20070;-65
2023/10/26 04:24:38;;;;;;;0.52;0.52;;;9.20;99.90;;;;;;5000345;28;20038;-65
2023/10/26 04:27:04;;;;;;;0.90;0.90;;;9.20;99.90;;;;;;4980916;28;20057;-65
2023/10/26 04:29:30;;;;;;;0.30;0.30;;;9.10;99.90;;;;;;4983067;28;20046;-65
2023/10/26 04:31:56;;;;;;;2.67;1.30;;;9.10;99.90;;;;;;4987875;28;20046;-65
2023/10/26 04:34:21;;;;;;;0.20;0.20;;;9.10;99.90;;;;;;4988822;28;20109;-66
2023/10/26 04:36:47;;;;;;;0.10;0.10;;;9.10;99.90;;;;;;4982482;28;20035;-65
2023/10/26 04:39:13;;;;;;;0.40;0.40;;;9.00;99.90;;;;;;4982769;28;20049;-65
2023/10/26 04:41:39;;;;;;;0.52;0.52;;;9.00;99.90;;;;;;4981757;28;20046;-65
2023/10/26 04:44:05;;;;;;;0.10;0.10;;;9.00;99.90;;;;;;4988941;28;20042;-65
2023/10/26 04:46:31;;;;;;;0.10;0.10;;;9.10;99.90;;;;;;4978995;28;20054;-66
2023/10/26 04:48:56;;;;;;;0.25;0.25;;;9.00;99.90;;;;;;4987115;28;20037;-65
2023/10/26 04:51:22;;;;;;;0.38;0.38;;;9.00;99.90;;;;;;4989271;28;20081;-65
2023/10/26 04:53:49;;;;;;;0.20;0.20;;;9.00;99.90;;;;;;4980575;28;20273;-65
2023/10/26 04:56:14;;;;;;;0.40;0.40;;;9.00;99.90;;;;;;4983453;28;20038;-65
2023/10/26 04:58:43;;;;;;;0.40;0.40;;;9.00;99.90;;;;;;4985337;28;20517;-65
2023/10/26 05:01:09;;;;;;;0.85;0.85;;;9.00;99.90;;;;;;4986269;28;20517;-65
2023/10/26 05:03:34;;;;;;;0.10;0.10;;;9.00;99.90;;;;;;4988747;28;20395;-65
2023/10/26 05:06:00;;;;;;;0.57;0.57;;;9.00;99.90;;;;;;4990411;28;20047;-65
2023/10/26 05:08:26;;;;;;;4.20;0.82;;;9.00;99.90;;;;;;4984169;28;20120;-65
2023/10/26 05:10:51;;;;;;;0.20;0.20;;;9.00;99.90;;;;;;4976426;28;20563;-66
2023/10/26 05:13:17;;;;;;;0.43;0.43;;;9.00;99.90;;;;;;4989781;28;20042;-66
2023/10/26 05:15:44;;;;;;;0.10;0.10;;;8.90;99.90;;;;;;4989159;28;20054;-65
2023/10/26 05:18:09;;;;;;;0.00;0.00;;;8.90;99.90;;;;;;4984835;28;20513;-65
2023/10/26 05:20:35;;;;;;;0.00;0.00;;;8.90;99.90;;;;;;4976345;28;20050;-65
2023/10/26 05:23:02;;;;;;;0.15;0.15;;;8.90;99.90;;;;;;4984809;28;20049;-65
2023/10/26 05:25:28;;;;;;;0.10;0.10;;;8.90;99.90;;;;;;4980589;28;20051;-65
2023/10/26 05:27:53;;;;;;;0.10;0.10;;;8.90;99.90;;;;;;4984888;28;20050;-65
2023/10/26 05:30:19;;;;;;;0.08;0.08;;;8.90;99.90;;;;;;4979816;28;20050;-65
2023/10/26 05:32:44;;;;;;;0.30;0.30;;;8.90;99.90;;;;;;4986813;28;20533;-65
2023/10/26 05:35:10;;;;;;;0.30;0.30;;;8.90;99.90;;;;;;4982860;28;20117;-65
2023/10/26 05:37:36;;;;;;;0.60;0.60;;;8.90;99.90;;;;;;4980171;28;20042;-65
2023/10/26 05:40:04;;;;;;;0.30;0.20;;;8.80;99.90;;;;;;4985787;28;20050;-65
2023/10/26 05:42:30;;;;;;;3.70;1.13;;;8.80;99.90;;;;;;4988970;28;20506;-66
2023/10/26 05:44:56;;;;;;;0.22;0.22;;;8.80;99.90;;;;;;4988432;28;20038;-65
2023/10/26 05:47:22;;;;;;;0.10;0.10;;;8.80;99.90;;;;;;4987888;28;20046;-66
2023/10/26 05:49:48;;;;;;;0.38;0.38;;;8.70;99.90;;;;;;4983287;28;20092;-65
2023/10/26 05:52:14;;;;;;;0.17;0.17;;;8.70;99.90;;;;;;4989283;28;20671;-65
2023/10/26 05:54:39;;;;;;;0.45;0.45;;;8.70;99.90;;;;;;4977486;28;20049;-65
2023/10/26 05:57:05;;;;;;;0.15;0.15;;;8.70;99.90;;;;;;4987682;28;20050;-65
2023/10/26 05:59:31;;;;;;;0.40;0.40;;;8.70;99.90;;;;;;4986070;28;20046;-65
2023/10/26 06:01:56;;;;;;;0.75;0.68;;;8.60;99.90;;;;;;4984403;28;20101;-65
2023/10/26 06:04:22;;;;;;;0.52;0.35;;;8.60;99.90;;;;;;4989589;28;20038;-65
2023/10/26 06:06:48;;;;;;;0.20;0.20;;;8.60;99.90;;;;;;4983496;28;20069;-65
2023/10/26 06:09:14;;;;;;;0.25;0.25;;;8.60;99.90;;;;;;4980478;28;20042;-65
2023/10/26 06:11:39;;;;;;;0.20;0.20;;;8.60;99.90;;;;;;4989577;28;20034;-65
2023/10/26 06:14:05;;;;;;;0.10;0.10;;;8.60;99.90;;;;;;4989656;28;20117;-65
2023/10/26 06:16:30;;;;;;;1.23;0.80;;;8.50;99.90;;;;;;4974955;28;20478;-65
2023/10/26 06:18:56;;;;;;;0.77;0.77;;;8.60;99.90;;;;;;4981364;28;20398;-65
2023/10/26 06:21:21;;;;;;;0.10;0.10;;;8.70;99.90;;;;;;4981533;28;20133;-65
2023/10/26 06:23:47;;;;;;;0.93;0.93;;;8.70;99.90;;;;;;4988934;28;20043;-65
2023/10/26 06:26:13;;;;;;;0.60;0.55;;;8.80;99.90;;;;;;4975012;28;20035;-65
2023/10/26 06:28:38;;;;;;;1.23;0.65;;;8.80;99.90;;;;;;4984537;28;20046;-65
2023/10/26 06:31:11;;;;;;;0.10;0.10;;;8.80;99.90;;;;;;4980327;28;21252;-65
2023/10/26 06:33:38;;;;;;;6.50;0.85;;;8.80;99.90;;;;;;4983531;28;20050;-65
2023/10/26 06:36:04;;;;;;;0.10;0.10;;;8.80;99.90;;;;;;4987698;28;20177;-65
2023/10/26 06:38:29;;;;;;;0.10;0.10;;;8.90;99.90;;;;;;4982558;28;20062;-66
2023/10/26 06:40:55;;;;;;;0.68;0.68;;;8.90;99.90;;;;;;4986888;28;20038;-66
2023/10/26 06:43:23;;;;;;;1.33;1.05;;;8.90;99.90;;;;;;4980273;28;20057;-65
2023/10/26 06:45:48;;;;;;;0.17;0.17;;;8.90;99.90;;;;;;4990866;28;20376;-65
2023/10/26 06:48:14;;;;;;;14.13;2.50;;;8.90;99.90;;;;;;4980601;28;20402;-65
2023/10/26 06:50:39;;;;;;;0.10;0.10;;;9.00;99.90;;;;;;4988485;28;20049;-65
2023/10/26 06:53:05;;;;;;;0.30;0.30;;;9.00;99.90;;;;;;4993365;28;20038;-66
2023/10/26 06:55:33;;;;;;;0.15;0.15;;;9.00;99.90;;;;;;4983407;28;20052;-66
2023/10/26 06:57:59;;;;;;;0.35;0.35;;;9.00;99.90;;;;;;4986989;28;20054;-66
2023/10/26 07:00:25;;;;;;;0.52;0.52;;;9.00;99.90;;;;;;4984010;28;20057;-66
2023/10/26 07:02:50;;;;;;;0.10;0.10;;;9.10;99.90;;;;;;4984722;28;20486;-66
2023/10/26 07:05:16;;;;;;;0.75;0.75;;;9.10;99.90;;;;;;4984139;28;20076;-65
2023/10/26 07:07:42;;;;;;;0.98;0.98;;;9.10;99.90;;;;;;4991256;28;20057;-65
2023/10/26 07:10:14;;;;;;;0.10;0.10;;;9.10;99.90;;;;;;4991219;28;20101;-65
2023/10/26 07:12:40;;;;;;;0.10;0.10;;;9.10;99.90;;;;;;4982620;28;20483;-65
2023/10/26 07:15:07;;;;;;;0.08;0.08;;;9.20;99.90;;;;;;4990793;28;20594;-65
2023/10/26 07:17:34;;;;;;;0.10;0.10;;;9.20;99.90;;;;;;4982082;28;20043;-66
2023/10/26 07:20:02;;;;;;;0.40;0.40;;;9.20;99.90;;;;;;4989648;28;20053;-66
2023/10/26 07:22:27;;;;;;;0.20;0.20;;;9.30;99.90;;;;;;4979644;28;20054;-66
2023/10/26 07:24:53;;;;;;;0.40;0.40;;;9.30;99.90;;;;;;4985010;28;20450;-66
2023/10/26 07:27:19;;;;;;;0.10;0.10;;;9.30;99.90;;;;;;4980148;28;20482;-65
2023/10/26 07:29:46;;;;;;;0.77;0.77;;;9.40;99.90;;;;;;4989065;28;20105;-65
2023/10/26 07:32:12;;;;;;;0.40;0.40;;;9.40;99.90;;;;;;4983453;28;20054;-65
2023/10/26 07:34:37;;;;;;;2.65;1.65;;;9.40;99.90;;;;;;4988389;28;20478;-66
2023/10/26 07:37:03;;;;;;;0.13;0.13;;;9.50;99.90;;;;;;4981786;28;20047;-66
2023/10/26 07:39:33;;;;;;;0.25;0.25;;;9.60;99.90;;;;;;4990669;28;20141;-66
2023/10/26 07:41:58;;;;;;;0.68;0.68;;;9.60;99.90;;;;;;4983176;28;20418;-66
2023/10/26 07:44:24;;;;;;;0.30;0.30;;;9.60;99.90;;;;;;4981420;28;20066;-65
2023/10/26 07:46:49;;;;;;;0.43;0.43;;;9.60;99.90;;;;;;4988514;28;20051;-66
2023/10/26 07:49:15;;;;;;;0.10;0.10;;;9.70;99.90;;;;;;4982698;28;20050;-66
2023/10/26 07:51:41;;;;;;;1.88;1.00;;;9.70;99.90;;;;;;4986486;28;20038;-66
2023/10/26 07:54:06;;;;;;;0.28;0.28;;;9.70;99.90;;;;;;4989493;28;20401;-66
2023/10/26 07:56:32;;;;;;;0.30;0.30;;;9.70;99.90;;;;;;4980636;28;20398;-66
2023/10/26 07:58:58;;;;;;;0.30;0.30;;;9.80;99.90;;;;;;4977996;28;20085;-65
2023/10/26 08:01:24;;;;;;;1.88;1.75;;;9.80;99.90;;;;;;4986722;28;20065;-66
2023/10/26 08:03:49;;;;;;;0.28;0.28;;;9.90;99.90;;;;;;4979429;28;20054;-66
2023/10/26 08:06:15;;;;;;;0.20;0.20;;;10.00;99.90;;;;;;4987613;28;20046;-66
2023/10/26 08:08:41;;;;;;;1.15;1.00;;;10.00;99.90;;;;;;4991408;28;20503;-66
2023/10/26 08:11:08;;;;;;;0.60;0.55;;;10.10;99.90;;;;;;4981728;28;20042;-66
2023/10/26 08:13:34;;;;;;;0.10;0.10;;;10.10;99.90;;;;;;4988247;28;20042;-66
2023/10/26 08:16:00;;;;;;;0.30;0.30;;;10.20;99.90;;;;;;4990350;28;20445;-66
2023/10/26 08:18:26;;;;;;;3.22;0.85;;;10.30;99.90;;;;;;4987791;28;20053;-66
2023/10/26 08:20:51;;;;;;;0.68;0.68;;;10.30;99.90;;;;;;4984365;28;20055;-66
2023/10/26 08:23:18;;;;;;;0.22;0.22;;;10.40;99.90;;;;;;4983465;28;20447;-66
2023/10/26 08:25:43;;;;;;;0.57;0.57;;;10.40;99.90;;;;;;4982549;28;20046;-66
2023/10/26 08:28:09;;;;;;;1.20;1.20;;;10.40;99.90;;;;;;4989340;28;20042;-66
2023/10/26 08:30:34;;;;;;;0.60;0.60;;;10.50;99.90;;;;;;4987436;28;20142;-66
2023/10/26 08:33:04;;;;;;;0.30;0.30;;;10.50;99.90;;;;;;4979960;28;20046;-66
2023/10/26 08:35:30;;;;;;;0.13;0.13;;;10.50;99.90;;;;;;4989131;28;20050;-66
2023/10/26 08:37:55;;;;;;;0.30;0.30;;;10.50;99.90;;;;;;4980878;28;20042;-66
2023/10/26 08:40:21;;;;;;;0.47;0.47;;;10.50;99.90;;;;;;4989160;28;20109;-66
2023/10/26 08:42:47;;;;;;;0.28;0.28;;;10.60;99.90;;;;;;4979021;28;20054;-66
2023/10/26 08:45:21;;;;;;;0.10;0.10;;;10.60;99.90;;;;;;4990116;28;20124;-66
2023/10/26 08:47:49;;;;;;;0.30;0.30;;;10.70;99.90;;;;;;4987107;28;20497;-66
2023/10/26 08:50:15;;;;;;;0.17;0.17;;;10.70;99.90;;;;;;4983439;28;20030;-66
2023/10/26 08:52:41;;;;;;;4.28;0.57;;;10.90;99.90;;;;;;4987133;28;20097;-66
2023/10/26 08:55:07;;;;;;;0.40;0.40;;;10.90;99.90;;;;;;4988762;28;20072;-66
2023/10/26 08:57:33;;;;;;;0.20;0.20;;;10.90;99.90;;;;;;4976825;28;20045;-67
2023/10/26 08:59:59;;;;;;;0.43;0.43;;;10.90;99.90;;;;;;4979842;28;20050;-66
2023/10/26 09:02:25;;;;;;;0.63;0.52;;;10.90;99.90;;;;;;4988625;28;20058;-66
2023/10/26 09:05:02;;;;;;;1.48;0.77;;;10.90;99.90;;;;;;4990267;28;20043;-66
2023/10/26 09:07:28;;;;;;;0.22;0.22;;;10.90;99.90;;;;;;4975789;28;20434;-66
2023/10/26 09:09:53;;;;;;;0.25;0.25;;;10.90;99.90;;;;;;4985818;28;20038;-66
2023/10/26 09:12:19;;;;;;;1.42;0.98;;;11.00;99.90;;;;;;4981795;28;20046;-66
2023/10/26 09:15:01;;;;;;;0.10;0.10;;;11.00;99.90;;;;;;4989628;28;20042;-66
2023/10/26 09:17:28;;;;;;;0.60;0.60;;;11.00;99.90;;;;;;4990958;28;20053;-66
2023/10/26 09:19:55;;;;;;;0.50;0.50;;;11.00;99.90;;;;;;4986009;28;20495;-66
2023/10/26 09:22:37;;;;;;;0.22;0.22;;;11.00;99.90;;;;;;4984377;28;20051;-66
2023/10/26 09:25:10;;;;;;;0.68;0.68;;;11.00;99.90;;;;;;4988450;28;20038;-66
2023/10/26 09:27:36;;;;;;;0.45;0.45;;;11.10;99.90;;;;;;5003658;28;20046;-66
2023/10/26 09:30:03;;;;;;;0.20;0.20;;;11.10;99.90;;;;;;4986618;28;20057;-66
2023/10/26 09:32:34;;;;;;;0.10;0.10;;;11.20;99.90;;;;;;4979703;28;20050;-66
2023/10/26 09:35:01;;;;;;;0.30;0.30;;;11.20;99.90;;;;;;4986940;28;20038;-66
2023/10/26 09:37:27;;;;;;;0.82;0.82;;;11.20;99.90;;;;;;4975655;28;20050;-66
2023/10/26 09:39:53;;;;;;;0.10;0.10;;;11.20;99.90;;;;;;4989869;28;20379;-66
2023/10/26 09:42:19;;;;;;;0.20;0.20;;;11.30;99.90;;;;;;4989717;28;20089;-66
2023/10/26 09:44:45;;;;;;;0.40;0.40;;;11.30;99.90;;;;;;4979098;28;20069;-66
2023/10/26 09:47:12;;;;;;;0.55;0.55;;;11.40;99.90;;;;;;4987374;28;20099;-66
2023/10/26 09:49:38;;;;;;;0.10;0.10;;;11.40;99.90;;;;;;4981876;28;20070;-66
2023/10/26 09:52:04;;;;;;;0.10;0.10;;;11.50;99.90;;;;;;4974407;28;20454;-66
2023/10/26 09:54:35;;;;;;;0.40;0.40;;;11.40;99.90;;;;;;4989185;28;20042;-66
2023/10/26 09:57:14;;;;;;;0.28;0.28;;;11.40;99.90;;;;;;4985389;28;20093;-66
2023/10/26 09:59:40;;;;;;;0.40;0.40;;;11.40;99.90;;;;;;4979508;28;20059;-66
2023/10/26 10:02:16;;;;;;;2.80;2.40;;;11.40;99.90;;;;;;4986436;28;20038;-66
2023/10/26 10:04:42;;;;;;;1.17;1.05;;;11.30;99.90;;;;;;4973858;28;20047;-66
2023/10/26 10:07:08;;;;;;;0.80;0.80;;;11.40;99.90;;;;;;4982073;28;20138;-66
2023/10/26 10:10:05;;;;;;;0.30;0.30;;;11.30;99.90;;;;;;4989136;28;20472;-66
2023/10/26 10:12:32;;;;;;;0.43;0.43;;;11.30;99.90;;;;;;4982524;28;20050;-66
2023/10/26 10:15:00;;;;;;;0.10;0.10;;;11.30;99.90;;;;;;4993549;28;20046;-66
2023/10/26 10:17:44;;;;;;;0.43;0.40;;;11.30;99.90;;;;;;4984434;28;20054;-66
2023/10/26 10:20:18;;;;;;;0.47;0.47;;;11.40;99.90;;;;;;4985410;28;20097;-66
2023/10/26 10:22:44;;;;;;;0.45;0.45;;;11.30;99.90;;;;;;4988403;28;20050;-66
2023/10/26 10:25:10;;;;;;;1.08;0.98;;;11.20;99.90;;;;;;4992871;28;20136;-66
2023/10/26 10:27:48;;;;;;;0.52;0.50;;;11.20;99.90;;;;;;4983198;28;20089;-66
2023/10/26 10:30:14;;;;;;;0.90;0.90;;;11.20;99.90;;;;;;4983067;28;20046;-66
2023/10/26 10:32:48;;;;;;;0.43;0.43;;;11.30;99.90;;;;;;4989110;28;20058;-66
2023/10/26 10:35:43;;;;;;;0.30;0.30;;;11.30;99.90;;;;;;4980996;28;20106;-66
2023/10/26 10:38:12;;;;;;;0.45;0.45;;;11.40;99.90;;;;;;4990348;28;20133;-66
2023/10/26 10:40:39;;;;;;;1.58;1.05;;;11.30;99.90;;;;;;4987938;28;20073;-66
2023/10/26 10:43:05;;;;;;;0.80;0.57;;;11.40;99.90;;;;;;4986652;28;20088;-66
2023/10/26 10:45:31;;;;;;;0.57;0.57;;;11.50;99.90;;;;;;4988454;28;20053;-66
2023/10/26 10:47:57;;;;;;;0.45;0.45;;;11.60;99.90;;;;;;4977144;28;20396;-66
2023/10/26 10:50:27;;;;;;;0.60;0.57;;;11.70;99.90;;;;;;4983298;28;20109;-66
2023/10/26 10:52:54;;;;;;;0.80;0.80;;;11.80;99.90;;;;;;4988268;28;20188;-66
2023/10/26 10:55:24;;;;;;;0.38;0.38;;;11.80;99.90;;;;;;4989908;28;20057;-66
2023/10/26 10:57:58;;;;;;;0.57;0.57;;;11.80;99.90;;;;;;4980404;28;20088;-66
2023/10/26 11:00:25;;;;;;;0.47;0.47;;;11.80;99.90;;;;;;4989021;28;20537;-66
2023/10/26 11:02:52;;;;;;;0.57;0.57;;;11.90;99.90;;;;;;4984095;28;20529;-66
2023/10/26 11:05:18;;;;;;;0.28;0.28;;;11.90;99.90;;;;;;4985962;28;20050;-66
2023/10/26 11:07:44;;;;;;;0.10;0.10;;;11.90;99.90;;;;;;4991872;28;20034;-66
2023/10/26 11:10:10;;;;;;;0.75;0.75;;;11.80;99.90;;;;;;4985253;28;20615;-66
2023/10/26 11:12:36;;;;;;;1.00;1.00;;;11.90;99.90;;;;;;4980321;28;20058;-66
2023/10/26 11:15:03;;;;;;;1.00;1.00;;;11.90;99.90;;;;;;4980546;28;20395;-66
2023/10/26 11:17:30;;;;;;;0.40;0.40;;;11.80;99.90;;;;;;4990815;28;20134;-66
2023/10/26 11:19:56;;;;;;;0.80;0.80;;;11.80;99.90;;;;;;4990550;28;20072;-66
2023/10/26 11:22:22;;;;;;;0.73;0.73;;;11.70;99.90;;;;;;4986344;28;20487;-66
2023/10/26 11:24:48;;;;;;;2.85;1.10;;;11.70;99.90;;;;;;4988737;28;20035;-66
2023/10/26 11:27:17;;;;;;;0.47;0.47;;;11.80;99.90;;;;;;4991420;28;20092;-66
2023/10/26 11:29:44;;;;;;;0.30;0.30;;;11.80;99.90;;;;;;4991517;28;20425;-66
2023/10/26 11:32:24;;;;;;;0.17;0.17;;;12.00;99.90;;;;;;4988048;28;20034;-66
2023/10/26 11:35:09;;;;;;;0.63;0.63;;;11.90;99.90;;;;;;4988633;28;20126;-66
2023/10/26 11:37:37;;;;;;;0.50;0.50;;;12.00;99.90;;;;;;4989068;28;20050;-66
2023/10/26 11:40:04;;;;;;;0.20;0.20;;;12.20;99.90;;;;;;4981134;28;20054;-66
2023/10/26 11:42:49;;;;;;;1.35;1.30;;;12.80;99.90;;;;;;4990824;28;20125;-66
2023/10/26 11:45:16;;;;;;;1.05;0.40;;;13.20;99.90;;;;;;4991811;28;20458;-66
2023/10/26 11:47:52;;;;;;;0.88;0.85;;;13.40;99.90;;;;;;4981144;28;20674;-67
2023/10/26 11:50:26;;;;;;;0.57;0.57;;;13.40;99.90;;;;;;4983067;28;20060;-66
2023/10/26 11:52:53;;;;;;;1.10;1.00;;;13.60;99.90;;;;;;4984691;28;20050;-67
2023/10/26 11:55:20;;;;;;;0.68;0.60;;;13.70;99.90;;;;;;4991405;28;20069;-66
2023/10/26 11:57:46;;;;;;;3.50;1.23;;;13.90;99.90;;;;;;4987600;28;20442;-66
2023/10/26 12:00:13;;;;;;;0.28;0.28;;;14.00;99.90;;;;;;4982521;28;20092;-67
2023/10/26 12:02:39;;;;;;;0.32;0.32;;;14.00;99.90;;;;;;4988602;28;20048;-66
2023/10/26 12:05:11;;;;;;;2.35;1.17;;;14.00;99.90;;;;;;4991354;28;21182;-66
2023/10/26 12:07:37;;;;;;;5.38;1.23;;;13.90;99.90;;;;;;4987340;28;20112;-66
2023/10/26 12:10:03;;;;;;;0.10;0.10;;;13.80;99.90;;;;;;4980082;28;20038;-66
2023/10/26 12:12:29;;;;;;;0.63;0.63;;;14.00;99.90;;;;;;4989303;28;20096;-67
2023/10/26 12:14:55;;;;;;;0.68;0.68;;;13.90;99.90;;;;;;4987862;28;20046;-66
2023/10/26 12:17:21;;;;;;;4.70;1.38;;;14.20;99.90;;;;;;4984767;28;20129;-66
2023/10/26 12:19:46;;;;;;;0.80;0.80;;;14.30;99.90;;;;;;4983218;28;20093;-67
2023/10/26 12:22:12;;;;;;;1.67;1.58;;;14.50;99.90;;;;;;4988100;28;20049;-66
2023/10/26 12:24:38;;;;;;;0.50;0.50;;;15.00;99.90;;;;;;4988583;28;20411;-66
2023/10/26 12:27:03;;;;;;;1.13;1.05;;;15.60;99.90;;;;;;4983000;28;20038;-67
2023/10/26 12:29:29;;;;;;;1.05;1.05;;;15.80;99.90;;;;;;4981706;28;20053;-66
2023/10/26 12:31:54;;;;;;;0.57;0.57;;;15.90;99.90;;;;;;4990494;28;20097;-66
2023/10/26 12:34:20;;;;;;;0.55;0.55;;;15.40;99.90;;;;;;4990783;28;20048;-66
2023/10/26 12:36:46;;;;;;;0.45;0.45;;;15.50;99.90;;;;;;4977072;28;20054;-66
2023/10/26 12:39:12;;;;;;;0.55;0.55;;;15.90;99.90;;;;;;4989152;28;20451;-67
2023/10/26 12:41:37;;;;;;;1.38;1.33;;;16.20;99.90;;;;;;4990432;28;20410;-67
2023/10/26 12:44:03;;;;;;;0.40;0.40;;;16.60;99.90;;;;;;4988006;28;20042;-67
2023/10/26 12:46:29;;;;;;;1.17;0.55;;;17.10;99.90;;;;;;4969635;28;20562;-67
2023/10/26 12:48:55;;;;;;;0.73;0.70;;;16.80;99.90;;;;;;4983242;28;20074;-67
2023/10/26 12:51:21;;;;;;;0.20;0.20;;;17.00;99.90;;;;;;4990546;28;20042;-67